sensor_id;sensor_type;location;lat;lon;timestamp;pressure;altitude;pressure_sealevel;temperature;humidity
57990;BME280;58373;51.824;5.564;2023-11-19T00:01:42;100770.22;;;11.44;100.00
57990;BME280;58373;51.824;5.564;2023-11-19T00:04:18;100771.03;;;11.44;100.00
57990;BME280;58373;51.824;5.564;2023-11-19T00:06:57;100773.50;;;11.46;100.00
57990;BME280;58373;51.824;5.564;2023-11-19T00:09:27;100765.31;;;11.51;100.00
57990;BME280;58373;51.824;5.564;2023-11-19T00:11:52;100750.53;;;11.51;100.00
57990;BME280;58373;51.824;5.564;2023-11-19T00:14:17;100731.41;;;11.52;100.00
57990;BME280;58373;51.824;5.564;2023-11-19T00:16:43;100734.72;;;11.54;100.00
57990;BME280;58373;51.824;5.564;2023-11-19T00:19:08;100718.59;;;11.60;100.00
57990;BME280;58373;51.824;5.564;2023-11-19T00:21:33;100724.03;;;11.57;100.00
57990;BME280;58373;51.824;5.564;2023-11-19T00:23:58;100730.66;;;11.71;100.00
57990;BME280;58373;51.824;5.564;2023-11-19T00:26:23;100732.00;;;11.65;100.00
57990;BME280;58373;51.824;5.564;2023-11-19T00:28:49;100740.47;;;11.67;100.00
57990;BME280;58373;51.824;5.564;2023-11-19T00:31:14;100723.25;;;11.66;100.00
57990;BME280;58373;51.824;5.564;2023-11-19T00:33:39;100718.47;;;11.72;100.00
57990;BME280;58373;51.824;5.564;2023-11-19T00:36:05;100722.13;;;11.69;100.00
57990;BME280;58373;51.824;5.564;2023-11-19T00:38:30;100719.44;;;11.70;100.00
57990;BME280;58373;51.824;5.564;2023-11-19T00:40:55;100728.16;;;11.69;100.00
57990;BME280;58373;51.824;5.564;2023-11-19T00:43:21;100740.06;;;11.72;100.00
57990;BME280;58373;51.824;5.564;2023-11-19T00:45:47;100731.47;;;11.72;100.00
57990;BME280;58373;51.824;5.564;2023-11-19T00:48:15;100733.34;;;11.69;100.00
57990;BME280;58373;51.824;5.564;2023-11-19T00:50:40;100748.94;;;11.69;100.00
57990;BME280;58373;51.824;5.564;2023-11-19T00:53:09;100733.34;;;11.69;100.00
57990;BME280;58373;51.824;5.564;2023-11-19T00:55:34;100726.53;;;11.68;100.00
57990;BME280;58373;51.824;5.564;2023-11-19T00:57:59;100738.56;;;11.69;100.00
57990;BME280;58373;51.824;5.564;2023-11-19T01:00:24;100725.56;;;11.69;100.00
57990;BME280;58373;51.824;5.564;2023-11-19T01:02:52;100719.97;;;11.74;100.00
57990;BME280;58373;51.824;5.564;2023-11-19T01:05:17;100730.50;;;11.73;100.00
57990;BME280;58373;51.824;5.564;2023-11-19T01:07:46;100722.72;;;11.73;100.00
57990;BME280;58373;51.824;5.564;2023-11-19T01:10:12;100713.13;;;11.73;100.00
57990;BME280;58373;51.824;5.564;2023-11-19T01:12:37;100716.53;;;11.74;100.00
57990;BME280;58373;51.824;5.564;2023-11-19T01:15:03;100722.72;;;11.73;100.00
57990;BME280;58373;51.824;5.564;2023-11-19T01:17:28;100717.25;;;11.76;100.00
57990;BME280;58373;51.824;5.564;2023-11-19T01:19:53;100724.09;;;11.77;100.00
57990;BME280;58373;51.824;5.564;2023-11-19T01:22:18;100726.78;;;11.75;100.00
57990;BME280;58373;51.824;5.564;2023-11-19T01:24:44;100700.56;;;11.78;100.00
57990;BME280;58373;51.824;5.564;2023-11-19T01:27:09;100696.47;;;11.76;100.00
57990;BME280;58373;51.824;5.564;2023-11-19T01:29:34;100687.97;;;11.74;100.00
57990;BME280;58373;51.824;5.564;2023-11-19T01:31:59;100690.72;;;11.72;100.00
57990;BME280;58373;51.824;5.564;2023-11-19T01:34:24;100695.75;;;11.74;100.00
57990;BME280;58373;51.824;5.564;2023-11-19T01:36:50;100693.16;;;11.74;100.00
57990;BME280;58373;51.824;5.564;2023-11-19T01:39:15;100699.31;;;11.73;100.00
57990;BME280;58373;51.824;5.564;2023-11-19T01:41:44;100695.09;;;11.72;100.00
57990;BME280;58373;51.824;5.564;2023-11-19T01:44:10;100693.72;;;11.67;100.00
57990;BME280;58373;51.824;5.564;2023-11-19T01:46:37;100698.66;;;11.70;100.00
57990;BME280;58373;51.824;5.564;2023-11-19T01:49:04;100716.00;;;11.70;100.00
57990;BME280;58373;51.824;5.564;2023-11-19T01:51:30;100706.03;;;11.65;100.00
57990;BME280;58373;51.824;5.564;2023-11-19T01:53:55;100707.38;;;11.69;100.00
57990;BME280;58373;51.824;5.564;2023-11-19T01:56:22;100692.88;;;11.67;100.00
57990;BME280;58373;51.824;5.564;2023-11-19T01:58:48;100700.53;;;11.68;100.00
57990;BME280;58373;51.824;5.564;2023-11-19T02:01:14;100703.13;;;11.68;100.00
57990;BME280;58373;51.824;5.564;2023-11-19T02:03:39;100694.00;;;11.64;100.00
57990;BME280;58373;51.824;5.564;2023-11-19T02:06:05;100699.19;;;11.64;100.00
57990;BME280;58373;51.824;5.564;2023-11-19T02:08:30;100689.06;;;11.61;100.00
57990;BME280;58373;51.824;5.564;2023-11-19T02:10:56;100689.06;;;11.61;100.00
57990;BME280;58373;51.824;5.564;2023-11-19T02:13:25;100688.22;;;11.61;100.00
57990;BME280;58373;51.824;5.564;2023-11-19T02:15:51;100687.66;;;11.57;100.00
57990;BME280;58373;51.824;5.564;2023-11-19T02:18:26;100687.97;;;11.54;100.00
57990;BME280;58373;51.824;5.564;2023-11-19T02:20:55;100677.81;;;11.51;100.00
57990;BME280;58373;51.824;5.564;2023-11-19T02:23:20;100679.47;;;11.52;100.00
57990;BME280;58373;51.824;5.564;2023-11-19T02:25:47;100686.56;;;11.50;100.00
57990;BME280;58373;51.824;5.564;2023-11-19T02:28:14;100693.94;;;11.45;100.00
57990;BME280;58373;51.824;5.564;2023-11-19T02:30:40;100697.75;;;11.41;100.00
57990;BME280;58373;51.824;5.564;2023-11-19T02:33:06;100706.78;;;11.37;100.00
57990;BME280;58373;51.824;5.564;2023-11-19T02:35:31;100698.28;;;11.35;100.00
57990;BME280;58373;51.824;5.564;2023-11-19T02:37:58;100695.00;;;11.33;100.00
57990;BME280;58373;51.824;5.564;2023-11-19T02:40:24;100699.66;;;11.29;100.00
57990;BME280;58373;51.824;5.564;2023-11-19T02:42:50;100702.38;;;11.28;100.00
57990;BME280;58373;51.824;5.564;2023-11-19T02:45:15;100697.47;;;11.25;100.00
57990;BME280;58373;51.824;5.564;2023-11-19T02:47:40;100691.31;;;11.26;100.00
57990;BME280;58373;51.824;5.564;2023-11-19T02:50:07;100701.28;;;11.21;100.00
57990;BME280;58373;51.824;5.564;2023-11-19T02:52:38;100690.09;;;11.30;100.00
57990;BME280;58373;51.824;5.564;2023-11-19T02:55:04;100692.00;;;11.28;100.00
57990;BME280;58373;51.824;5.564;2023-11-19T02:57:34;100691.47;;;11.24;100.00
57990;BME280;58373;51.824;5.564;2023-11-19T02:59:59;100689.53;;;11.26;100.00
57990;BME280;58373;51.824;5.564;2023-11-19T03:02:24;100685.56;;;11.22;100.00
57990;BME280;58373;51.824;5.564;2023-11-19T03:04:58;100689.13;;;11.21;100.00
57990;BME280;58373;51.824;5.564;2023-11-19T03:07:24;100689.25;;;11.20;100.00
57990;BME280;58373;51.824;5.564;2023-11-19T03:09:49;100698.00;;;11.19;100.00
57990;BME280;58373;51.824;5.564;2023-11-19T03:12:14;100707.25;;;11.11;100.00
57990;BME280;58373;51.824;5.564;2023-11-19T03:14:40;100696.19;;;11.09;100.00
57990;BME280;58373;51.824;5.564;2023-11-19T03:17:05;100684.31;;;11.07;100.00
57990;BME280;58373;51.824;5.564;2023-11-19T03:19:30;100694.38;;;11.00;100.00
57990;BME280;58373;51.824;5.564;2023-11-19T03:21:55;100693.69;;;10.98;100.00
57990;BME280;58373;51.824;5.564;2023-11-19T03:24:21;100701.34;;;11.00;100.00
57990;BME280;58373;51.824;5.564;2023-11-19T03:26:49;100696.81;;;10.92;100.00
57990;BME280;58373;51.824;5.564;2023-11-19T03:29:17;100700.59;;;10.88;100.00
57990;BME280;58373;51.824;5.564;2023-11-19T03:31:43;100701.56;;;10.87;100.00
57990;BME280;58373;51.824;5.564;2023-11-19T03:34:08;100691.03;;;10.79;100.00
57990;BME280;58373;51.824;5.564;2023-11-19T03:36:33;100682.53;;;10.77;100.00
57990;BME280;58373;51.824;5.564;2023-11-19T03:38:59;100680.44;;;10.71;100.00
57990;BME280;58373;51.824;5.564;2023-11-19T03:41:24;100678.28;;;10.76;100.00
57990;BME280;58373;51.824;5.564;2023-11-19T03:43:49;100682.59;;;10.66;100.00
57990;BME280;58373;51.824;5.564;2023-11-19T03:46:20;100687.34;;;10.60;100.00
57990;BME280;58373;51.824;5.564;2023-11-19T03:48:49;100684.22;;;10.57;100.00
57990;BME280;58373;51.824;5.564;2023-11-19T03:51:14;100679.41;;;10.52;100.00
57990;BME280;58373;51.824;5.564;2023-11-19T03:53:42;100675.31;;;10.50;100.00
57990;BME280;58373;51.824;5.564;2023-11-19T03:56:07;100685.63;;;10.40;100.00
57990;BME280;58373;51.824;5.564;2023-11-19T03:58:34;100698.44;;;10.42;100.00
57990;BME280;58373;51.824;5.564;2023-11-19T04:00:59;100708.00;;;10.41;100.00
57990;BME280;58373;51.824;5.564;2023-11-19T04:03:25;100704.16;;;10.35;100.00
57990;BME280;58373;51.824;5.564;2023-11-19T04:05:50;100705.09;;;10.34;100.00
57990;BME280;58373;51.824;5.564;2023-11-19T04:08:15;100705.22;;;10.33;100.00
57990;BME280;58373;51.824;5.564;2023-11-19T04:10:41;100701.91;;;10.31;100.00
57990;BME280;58373;51.824;5.564;2023-11-19T04:13:06;100697.00;;;10.28;100.00
57990;BME280;58373;51.824;5.564;2023-11-19T04:15:31;100697.25;;;10.25;100.00
57990;BME280;58373;51.824;5.564;2023-11-19T04:17:56;100695.72;;;10.22;100.00
57990;BME280;58373;51.824;5.564;2023-11-19T04:20:21;100700.31;;;10.19;100.00
57990;BME280;58373;51.824;5.564;2023-11-19T04:22:47;100705.63;;;10.17;100.00
57990;BME280;58373;51.824;5.564;2023-11-19T04:25:12;100706.00;;;10.13;100.00
57990;BME280;58373;51.824;5.564;2023-11-19T04:27:38;100711.88;;;10.15;100.00
57990;BME280;58373;51.824;5.564;2023-11-19T04:30:04;100714.03;;;10.09;100.00
57990;BME280;58373;51.824;5.564;2023-11-19T04:32:30;100718.13;;;10.12;100.00
57990;BME280;58373;51.824;5.564;2023-11-19T04:34:55;100720.84;;;10.10;100.00
57990;BME280;58373;51.824;5.564;2023-11-19T04:37:20;100724.13;;;10.13;100.00
57990;BME280;58373;51.824;5.564;2023-11-19T04:39:46;100720.84;;;10.10;100.00
57990;BME280;58373;51.824;5.564;2023-11-19T04:42:11;100718.13;;;10.12;100.00
57990;BME280;58373;51.824;5.564;2023-11-19T04:44:37;100727.22;;;10.06;100.00
57990;BME280;58373;51.824;5.564;2023-11-19T04:47:02;100716.03;;;10.06;100.00
57990;BME280;58373;51.824;5.564;2023-11-19T04:49:27;100718.06;;;10.02;100.00
57990;BME280;58373;51.824;5.564;2023-11-19T04:51:53;100719.94;;;10.00;100.00
57990;BME280;58373;51.824;5.564;2023-11-19T04:54:18;100722.53;;;10.00;100.00
57990;BME280;58373;51.824;5.564;2023-11-19T04:56:46;100722.78;;;9.97;100.00
57990;BME280;58373;51.824;5.564;2023-11-19T04:59:15;100725.97;;;10.01;100.00
57990;BME280;58373;51.824;5.564;2023-11-19T05:01:40;100722.09;;;9.95;100.00
57990;BME280;58373;51.824;5.564;2023-11-19T05:04:05;100716.91;;;9.95;100.00
57990;BME280;58373;51.824;5.564;2023-11-19T05:06:32;100720.19;;;9.97;100.00
57990;BME280;58373;51.824;5.564;2023-11-19T05:08:58;100710.09;;;9.94;100.00
57990;BME280;58373;51.824;5.564;2023-11-19T05:11:26;100719.88;;;9.91;100.00
57990;BME280;58373;51.824;5.564;2023-11-19T05:13:53;100724.22;;;9.90;100.00
57990;BME280;58373;51.824;5.564;2023-11-19T05:16:18;100719.03;;;9.90;100.00
57990;BME280;58373;51.824;5.564;2023-11-19T05:18:44;100723.16;;;9.93;100.00
57990;BME280;58373;51.824;5.564;2023-11-19T05:21:10;100719.03;;;9.90;100.00
57990;BME280;58373;51.824;5.564;2023-11-19T05:23:35;100732.13;;;9.89;100.00
57990;BME280;58373;51.824;5.564;2023-11-19T05:26:01;100721.50;;;9.92;100.00
57990;BME280;58373;51.824;5.564;2023-11-19T05:28:26;100715.50;;;9.91;100.00
57990;BME280;58373;51.824;5.564;2023-11-19T05:30:51;100713.88;;;9.90;100.00
57990;BME280;58373;51.824;5.564;2023-11-19T05:33:16;100716.59;;;9.89;100.00
57990;BME280;58373;51.824;5.564;2023-11-19T05:35:41;100717.84;;;9.94;100.00
57990;BME280;58373;51.824;5.564;2023-11-19T05:38:07;100723.41;;;9.90;100.00
57990;BME280;58373;51.824;5.564;2023-11-19T05:40:32;100718.50;;;9.87;100.00
57990;BME280;58373;51.824;5.564;2023-11-19T05:42:57;100722.25;;;9.82;100.00
57990;BME280;58373;51.824;5.564;2023-11-19T05:45:23;100734.50;;;9.80;100.00
57990;BME280;58373;51.824;5.564;2023-11-19T05:47:48;100735.78;;;9.86;100.00
57990;BME280;58373;51.824;5.564;2023-11-19T05:50:13;100743.09;;;9.92;100.00
57990;BME280;58373;51.824;5.564;2023-11-19T05:52:39;100740.03;;;9.87;100.00
57990;BME280;58373;51.824;5.564;2023-11-19T05:55:04;100739.56;;;9.82;100.00
57990;BME280;58373;51.824;5.564;2023-11-19T05:57:34;100728.50;;;9.80;100.00
57990;BME280;58373;51.824;5.564;2023-11-19T05:59:59;100732.03;;;9.79;100.00
57990;BME280;58373;51.824;5.564;2023-11-19T06:02:25;100727.13;;;9.76;100.00
57990;BME280;58373;51.824;5.564;2023-11-19T06:04:50;100726.38;;;9.74;100.00
57990;BME280;58373;51.824;5.564;2023-11-19T06:07:15;100722.88;;;9.75;100.00
57990;BME280;58373;51.824;5.564;2023-11-19T06:09:40;100728.06;;;9.75;100.00
57990;BME280;58373;51.824;5.564;2023-11-19T06:12:06;100727.34;;;9.73;100.00
57990;BME280;58373;51.824;5.564;2023-11-19T06:14:32;100731.56;;;9.74;100.00
57990;BME280;58373;51.824;5.564;2023-11-19T06:16:57;100727.59;;;9.70;100.00
57990;BME280;58373;51.824;5.564;2023-11-19T06:19:23;100723.56;;;9.77;100.00
57990;BME280;58373;51.824;5.564;2023-11-19T06:21:50;100720.53;;;9.72;100.00
57990;BME280;58373;51.824;5.564;2023-11-19T06:24:15;100719.44;;;9.74;100.00
57990;BME280;58373;51.824;5.564;2023-11-19T06:26:40;100714.84;;;9.78;100.00
57990;BME280;58373;51.824;5.564;2023-11-19T06:29:05;100713.94;;;9.68;100.00
57990;BME280;58373;51.824;5.564;2023-11-19T06:31:30;100712.28;;;9.67;100.00
57990;BME280;58373;51.824;5.564;2023-11-19T06:33:56;100721.97;;;9.65;100.00
57990;BME280;58373;51.824;5.564;2023-11-19T06:36:21;100720.41;;;9.62;100.00
57990;BME280;58373;51.824;5.564;2023-11-19T06:38:46;100722.31;;;9.60;100.00
57990;BME280;58373;51.824;5.564;2023-11-19T06:41:11;100722.44;;;9.58;100.00
57990;BME280;58373;51.824;5.564;2023-11-19T06:43:37;100733.72;;;9.57;100.00
57990;BME280;58373;51.824;5.564;2023-11-19T06:46:02;100732.09;;;9.56;100.00
57990;BME280;58373;51.824;5.564;2023-11-19T06:48:30;100739.50;;;9.61;100.00
57990;BME280;58373;51.824;5.564;2023-11-19T06:50:57;100732.09;;;9.56;100.00
57990;BME280;58373;51.824;5.564;2023-11-19T06:53:22;100735.06;;;9.52;100.00
57990;BME280;58373;51.824;5.564;2023-11-19T06:55:47;100745.16;;;9.55;100.00
57990;BME280;58373;51.824;5.564;2023-11-19T06:58:12;100747.88;;;9.53;100.00
57990;BME280;58373;51.824;5.564;2023-11-19T07:00:37;100745.97;;;9.55;100.00
57990;BME280;58373;51.824;5.564;2023-11-19T07:03:02;100739.38;;;9.51;100.00
57990;BME280;58373;51.824;5.564;2023-11-19T07:05:28;100750.59;;;9.52;100.00
57990;BME280;58373;51.824;5.564;2023-11-19T07:07:53;100760.09;;;9.51;100.00
57990;BME280;58373;51.824;5.564;2023-11-19T07:10:19;100768.81;;;9.50;100.00
57990;BME280;58373;51.824;5.564;2023-11-19T07:12:44;100774.00;;;9.50;100.00
57990;BME280;58373;51.824;5.564;2023-11-19T07:15:09;100778.22;;;9.51;100.00
57990;BME280;58373;51.824;5.564;2023-11-19T07:17:35;100769.06;;;9.47;100.00
57990;BME280;58373;51.824;5.564;2023-11-19T07:20:00;100775.63;;;9.51;100.00
57990;BME280;58373;51.824;5.564;2023-11-19T07:22:25;100775.63;;;9.51;100.00
57990;BME280;58373;51.824;5.564;2023-11-19T07:24:51;100770.22;;;9.54;100.00
57990;BME280;58373;51.824;5.564;2023-11-19T07:27:16;100771.66;;;9.58;100.00
57990;BME280;58373;51.824;5.564;2023-11-19T07:29:43;100777.75;;;9.57;100.00
57990;BME280;58373;51.824;5.564;2023-11-19T07:32:08;100780.31;;;9.57;100.00
57990;BME280;58373;51.824;5.564;2023-11-19T07:34:33;100800.94;;;9.59;100.00
57990;BME280;58373;51.824;5.564;2023-11-19T07:36:59;100790.47;;;9.61;100.00
57990;BME280;58373;51.824;5.564;2023-11-19T07:39:27;100790.25;;;9.64;100.00
57990;BME280;58373;51.824;5.564;2023-11-19T07:41:52;100796.34;;;9.63;100.00
57990;BME280;58373;51.824;5.564;2023-11-19T07:44:17;100805.78;;;9.64;100.00
57990;BME280;58373;51.824;5.564;2023-11-19T07:46:43;100801.97;;;9.68;100.00
57990;BME280;58373;51.824;5.564;2023-11-19T07:49:09;100800.13;;;9.70;100.00
57990;BME280;58373;51.824;5.564;2023-11-19T07:51:35;100803.88;;;9.77;100.00
57990;BME280;58373;51.824;5.564;2023-11-19T07:54:00;100802.31;;;9.74;100.00
57990;BME280;58373;51.824;5.564;2023-11-19T07:56:25;100798.81;;;9.75;100.00
57990;BME280;58373;51.824;5.564;2023-11-19T07:58:51;100797.72;;;9.78;100.00
57990;BME280;58373;51.824;5.564;2023-11-19T08:01:17;100790.66;;;9.80;100.00
57990;BME280;58373;51.824;5.564;2023-11-19T08:03:42;100796.78;;;9.79;100.00
57990;BME280;58373;51.824;5.564;2023-11-19T08:06:07;100795.84;;;9.80;100.00
57990;BME280;58373;51.824;5.564;2023-11-19T08:08:32;100794.19;;;9.79;100.00
57990;BME280;58373;51.824;5.564;2023-11-19T08:10:59;100800.53;;;9.86;100.00
57990;BME280;58373;51.824;5.564;2023-11-19T08:13:24;100799.16;;;9.82;100.00
57990;BME280;58373;51.824;5.564;2023-11-19T08:15:50;100799.97;;;9.82;100.00
57990;BME280;58373;51.824;5.564;2023-11-19T08:18:15;100804.31;;;9.82;100.00
57990;BME280;58373;51.824;5.564;2023-11-19T08:20:41;100804.88;;;9.85;100.00
57990;BME280;58373;51.824;5.564;2023-11-19T08:23:09;100804.06;;;9.85;100.00
57990;BME280;58373;51.824;5.564;2023-11-19T08:25:35;100797.25;;;9.84;100.00
57990;BME280;58373;51.824;5.564;2023-11-19T08:28:00;100800.78;;;9.83;100.00
57990;BME280;58373;51.824;5.564;2023-11-19T08:30:25;100803.84;;;9.88;100.00
57990;BME280;58373;51.824;5.564;2023-11-19T08:32:50;100795.13;;;9.89;100.00
57990;BME280;58373;51.824;5.564;2023-11-19T08:35:16;100791.59;;;9.90;100.00
57990;BME280;58373;51.824;5.564;2023-11-19T08:37:41;100793.00;;;9.94;100.00
57990;BME280;58373;51.824;5.564;2023-11-19T08:40:07;100799.00;;;9.95;100.00
57990;BME280;58373;51.824;5.564;2023-11-19T08:42:32;100790.03;;;9.99;100.00
57990;BME280;58373;51.824;5.564;2023-11-19T08:44:57;100790.88;;;9.99;100.00
57990;BME280;58373;51.824;5.564;2023-11-19T08:47:23;100790.88;;;9.99;100.00
57990;BME280;58373;51.824;5.564;2023-11-19T08:49:50;100803.09;;;9.97;100.00
57990;BME280;58373;51.824;5.564;2023-11-19T08:52:17;100808.63;;;10.04;100.00
57990;BME280;58373;51.824;5.564;2023-11-19T08:54:42;100809.00;;;9.99;100.00
57990;BME280;58373;51.824;5.564;2023-11-19T08:57:08;100798.84;;;10.07;100.00
57990;BME280;58373;51.824;5.564;2023-11-19T08:59:34;100812.25;;;10.13;100.00
57990;BME280;58373;51.824;5.564;2023-11-19T09:01:59;100813.31;;;10.21;100.00
57990;BME280;58373;51.824;5.564;2023-11-19T09:04:24;100814.59;;;10.27;100.00
57990;BME280;58373;51.824;5.564;2023-11-19T09:06:49;100811.06;;;10.28;100.00
57990;BME280;58373;51.824;5.564;2023-11-19T09:09:14;100805.88;;;10.28;100.00
57990;BME280;58373;51.824;5.564;2023-11-19T09:11:40;100805.38;;;10.34;100.00
57990;BME280;58373;51.824;5.564;2023-11-19T09:14:05;100803.97;;;10.30;100.00
57990;BME280;58373;51.824;5.564;2023-11-19T09:16:30;100811.06;;;10.28;100.00
57990;BME280;58373;51.824;5.564;2023-11-19T09:18:55;100813.41;;;10.31;100.00
57990;BME280;58373;51.824;5.564;2023-11-19T09:21:21;100803.97;;;10.30;100.00
57990;BME280;58373;51.824;5.564;2023-11-19T09:23:46;100807.53;;;10.29;100.00
57990;BME280;58373;51.824;5.564;2023-11-19T09:26:13;100808.22;;;10.31;100.00
57990;BME280;58373;51.824;5.564;2023-11-19T09:28:38;100812.72;;;10.29;100.00
57990;BME280;58373;51.824;5.564;2023-11-19T09:31:12;100810.31;;;10.37;100.00
57990;BME280;58373;51.824;5.564;2023-11-19T09:33:37;100801.34;;;10.41;100.00
57990;BME280;58373;51.824;5.564;2023-11-19T09:36:03;100798.56;;;10.33;100.00
57990;BME280;58373;51.824;5.564;2023-11-19T09:38:28;100799.94;;;10.37;100.00
57990;BME280;58373;51.824;5.564;2023-11-19T09:40:53;100794.50;;;10.40;100.00
57990;BME280;58373;51.824;5.564;2023-11-19T09:43:18;100799.44;;;10.43;100.00
57990;BME280;58373;51.824;5.564;2023-11-19T09:45:50;100800.03;;;10.47;100.00
57990;BME280;58373;51.824;5.564;2023-11-19T09:48:19;100794.78;;;10.58;100.00
57990;BME280;58373;51.824;5.564;2023-11-19T09:50:47;100801.75;;;10.57;100.00
57990;BME280;58373;51.824;5.564;2023-11-19T09:53:13;100793.00;;;10.58;100.00
57990;BME280;58373;51.824;5.564;2023-11-19T09:55:38;100800.97;;;10.67;100.00
57990;BME280;58373;51.824;5.564;2023-11-19T09:58:04;100795.31;;;10.73;100.00
57990;BME280;58373;51.824;5.564;2023-11-19T10:00:30;100810.34;;;10.79;100.00
57990;BME280;58373;51.824;5.564;2023-11-19T10:02:55;100806.31;;;10.86;100.00
57990;BME280;58373;51.824;5.564;2023-11-19T10:05:22;100809.41;;;10.80;100.00
57990;BME280;58373;51.824;5.564;2023-11-19T10:07:48;100801.34;;;10.83;100.00
57990;BME280;58373;51.824;5.564;2023-11-19T10:10:14;100801.09;;;10.86;100.00
57990;BME280;58373;51.824;5.564;2023-11-19T10:12:43;100802.53;;;11.00;100.00
57990;BME280;58373;51.824;5.564;2023-11-19T10:15:08;100792.66;;;11.14;100.00
57990;BME280;58373;51.824;5.564;2023-11-19T10:17:40;100795.50;;;11.11;100.00
57990;BME280;58373;51.824;5.564;2023-11-19T10:20:06;100790.66;;;11.28;100.00
57990;BME280;58373;51.824;5.564;2023-11-19T10:22:32;100786.66;;;11.24;100.00
57990;BME280;58373;51.824;5.564;2023-11-19T10:25:01;100787.25;;;11.27;100.00
57990;BME280;58373;51.824;5.564;2023-11-19T10:27:26;100775.34;;;11.25;100.00
57990;BME280;58373;51.824;5.564;2023-11-19T10:29:51;100780.28;;;11.28;100.00
57990;BME280;58373;51.824;5.564;2023-11-19T10:32:17;100782.44;;;11.23;100.00
57990;BME280;58373;51.824;5.564;2023-11-19T10:34:42;100780.56;;;11.25;100.00
57990;BME280;58373;51.824;5.564;2023-11-19T10:37:08;100786.66;;;11.24;100.00
57990;BME280;58373;51.824;5.564;2023-11-19T10:39:51;100778.09;;;11.33;100.00
57990;BME280;58373;51.824;5.564;2023-11-19T10:42:16;100777.84;;;11.36;100.00
57990;BME280;58373;51.824;5.564;2023-11-19T10:44:41;100767.75;;;11.42;100.00
57990;BME280;58373;51.824;5.564;2023-11-19T10:47:07;100770.75;;;11.38;100.00
57990;BME280;58373;51.824;5.564;2023-11-19T10:49:34;100758.72;;;11.47;100.00
57990;BME280;58373;51.824;5.564;2023-11-19T10:52:00;100758.72;;;11.47;100.00
57990;BME280;58373;51.824;5.564;2023-11-19T10:54:25;100772.84;;;11.54;100.00
57990;BME280;58373;51.824;5.564;2023-11-19T10:56:54;100781.72;;;11.51;100.00
57990;BME280;58373;51.824;5.564;2023-11-19T10:59:20;100784.31;;;11.51;100.00
57990;BME280;58373;51.824;5.564;2023-11-19T11:01:46;100780.50;;;11.55;100.00
57990;BME280;58373;51.824;5.564;2023-11-19T11:04:19;100777.47;;;11.50;100.00
57990;BME280;58373;51.824;5.564;2023-11-19T11:06:44;100766.13;;;11.51;100.00
57990;BME280;58373;51.824;5.564;2023-11-19T11:09:10;100781.19;;;11.57;100.00
57990;BME280;58373;51.824;5.564;2023-11-19T11:11:39;100753.84;;;11.53;100.00
57990;BME280;58373;51.824;5.564;2023-11-19T11:14:04;100760.41;;;11.57;100.00
57990;BME280;58373;51.824;5.564;2023-11-19T11:16:30;100757.28;;;11.54;100.00
57990;BME280;58373;51.824;5.564;2023-11-19T11:18:56;100749.34;;;11.55;100.00
57990;BME280;58373;51.824;5.564;2023-11-19T11:21:23;100770.25;;;11.54;100.00
57990;BME280;58373;51.824;5.564;2023-11-19T11:23:56;100752.75;;;11.56;100.00
57990;BME280;58373;51.824;5.564;2023-11-19T11:31:36;100754.56;;;11.75;100.00
57990;BME280;58373;51.824;5.564;2023-11-19T11:36:31;100758.81;;;11.76;100.00
57990;BME280;58373;51.824;5.564;2023-11-19T11:38:59;100760.72;;;11.74;100.00
57990;BME280;58373;51.824;5.564;2023-11-19T11:41:25;100748.94;;;11.69;100.00
57990;BME280;58373;51.824;5.564;2023-11-19T11:43:54;100764.53;;;11.69;100.00
57990;BME280;58373;51.824;5.564;2023-11-19T11:49:06;100753.88;;;11.73;100.00
57990;BME280;58373;51.824;5.564;2023-11-19T12:02:07;100756.88;;;11.68;100.00
57990;BME280;58373;51.824;5.564;2023-11-19T12:04:33;100750.59;;;11.70;100.00
57990;BME280;58373;51.824;5.564;2023-11-19T12:07:03;100757.69;;;11.68;100.00
57990;BME280;58373;51.824;5.564;2023-11-19T12:09:28;100743.06;;;11.67;100.00
57990;BME280;58373;51.824;5.564;2023-11-19T12:12:06;100733.91;;;11.73;100.00
57990;BME280;58373;51.824;5.564;2023-11-19T12:20:08;100743.63;;;11.81;100.00
57990;BME280;58373;51.824;5.564;2023-11-19T12:22:43;100736.78;;;11.80;100.00
57990;BME280;58373;51.824;5.564;2023-11-19T12:25:09;100732.56;;;11.79;100.00
57990;BME280;58373;51.824;5.564;2023-11-19T12:27:44;100713.69;;;11.77;100.00
57990;BME280;58373;51.824;5.564;2023-11-19T12:30:10;100725.22;;;11.84;100.00
57990;BME280;58373;51.824;5.564;2023-11-19T12:32:42;100717.28;;;11.85;99.91
57990;BME280;58373;51.824;5.564;2023-11-19T12:35:08;100736.69;;;11.81;100.00
57990;BME280;58373;51.824;5.564;2023-11-19T12:37:43;100730.13;;;11.87;100.00
57990;BME280;58373;51.824;5.564;2023-11-19T12:40:18;100731.78;;;11.88;99.97
57990;BME280;58373;51.824;5.564;2023-11-19T12:42:47;100727.41;;;11.88;100.00
57990;BME280;58373;51.824;5.564;2023-11-19T12:45:13;100730.41;;;11.84;100.00
57990;BME280;58373;51.824;5.564;2023-11-19T12:47:39;100730.84;;;11.99;99.61
57990;BME280;58373;51.824;5.564;2023-11-19T12:50:05;100733.13;;;11.92;100.00
57990;BME280;58373;51.824;5.564;2023-11-19T12:52:31;100741.75;;;11.92;100.00
57990;BME280;58373;51.824;5.564;2023-11-19T12:54:57;100733.13;;;11.92;100.00
57990;BME280;58373;51.824;5.564;2023-11-19T12:57:35;100726.88;;;11.94;100.00
57990;BME280;58373;51.824;5.564;2023-11-19T13:00:00;100738.34;;;12.02;100.00
57990;BME280;58373;51.824;5.564;2023-11-19T13:02:44;100733.97;;;12.02;99.79
57990;BME280;58373;51.824;5.564;2023-11-19T13:07:47;100727.13;;;12.01;99.67